sensor_id;sensor_type;location;lat;lon;timestamp;P1;durP1;ratioP1;P2;durP2;ratioP2
1719;SDS011;857;52.872;9.692;2022-11-20T00:00:24;21.67;;;15.13;;
1719;SDS011;857;52.872;9.692;2022-11-20T00:02:52;22.50;;;15.30;;
1719;SDS011;857;52.872;9.692;2022-11-20T00:05:19;26.37;;;15.27;;
1719;SDS011;857;52.872;9.692;2022-11-20T00:07:47;24.00;;;14.53;;
1719;SDS011;857;52.872;9.692;2022-11-20T00:10:15;27.90;;;16.50;;
1719;SDS011;857;52.872;9.692;2022-11-20T00:12:42;24.33;;;14.80;;
1719;SDS011;857;52.872;9.692;2022-11-20T00:15:12;25.30;;;16.47;;
1719;SDS011;857;52.872;9.692;2022-11-20T00:17:39;26.63;;;16.00;;
1719;SDS011;857;52.872;9.692;2022-11-20T00:20:07;22.47;;;13.60;;
1719;SDS011;857;52.872;9.692;2022-11-20T00:22:35;22.40;;;14.60;;
1719;SDS011;857;52.872;9.692;2022-11-20T00:25:03;24.17;;;14.00;;
1719;SDS011;857;52.872;9.692;2022-11-20T00:27:31;25.00;;;15.20;;
1719;SDS011;857;52.872;9.692;2022-11-20T00:29:58;26.60;;;15.60;;
1719;SDS011;857;52.872;9.692;2022-11-20T00:32:27;26.80;;;14.80;;
1719;SDS011;857;52.872;9.692;2022-11-20T00:34:55;23.80;;;14.30;;
1719;SDS011;857;52.872;9.692;2022-11-20T00:37:23;23.70;;;14.43;;
1719;SDS011;857;52.872;9.692;2022-11-20T00:39:51;26.23;;;15.10;;
1719;SDS011;857;52.872;9.692;2022-11-20T00:42:18;26.50;;;14.70;;
1719;SDS011;857;52.872;9.692;2022-11-20T00:44:46;25.90;;;15.60;;
1719;SDS011;857;52.872;9.692;2022-11-20T00:47:14;30.10;;;17.13;;
1719;SDS011;857;52.872;9.692;2022-11-20T00:49:43;21.90;;;15.03;;
1719;SDS011;857;52.872;9.692;2022-11-20T00:52:10;29.67;;;17.37;;
1719;SDS011;857;52.872;9.692;2022-11-20T00:54:38;28.73;;;15.63;;
1719;SDS011;857;52.872;9.692;2022-11-20T00:57:06;23.70;;;14.40;;
1719;SDS011;857;52.872;9.692;2022-11-20T00:59:33;26.87;;;16.50;;
1719;SDS011;857;52.872;9.692;2022-11-20T01:02:01;28.17;;;16.20;;
1719;SDS011;857;52.872;9.692;2022-11-20T01:04:29;26.30;;;16.10;;
1719;SDS011;857;52.872;9.692;2022-11-20T01:06:58;24.07;;;14.70;;
1719;SDS011;857;52.872;9.692;2022-11-20T01:09:25;25.50;;;14.73;;
1719;SDS011;857;52.872;9.692;2022-11-20T01:11:53;27.40;;;15.27;;
1719;SDS011;857;52.872;9.692;2022-11-20T01:14:21;27.80;;;16.43;;
1719;SDS011;857;52.872;9.692;2022-11-20T01:16:49;24.37;;;16.13;;
1719;SDS011;857;52.872;9.692;2022-11-20T01:19:18;27.07;;;16.60;;
1719;SDS011;857;52.872;9.692;2022-11-20T01:21:48;23.67;;;15.13;;
1719;SDS011;857;52.872;9.692;2022-11-20T01:24:18;28.07;;;14.93;;
1719;SDS011;857;52.872;9.692;2022-11-20T01:26:46;22.50;;;15.30;;
1719;SDS011;857;52.872;9.692;2022-11-20T01:29:15;21.80;;;14.03;;
1719;SDS011;857;52.872;9.692;2022-11-20T01:31:43;20.97;;;13.80;;
1719;SDS011;857;52.872;9.692;2022-11-20T01:34:11;24.67;;;15.10;;
1719;SDS011;857;52.872;9.692;2022-11-20T01:36:39;24.70;;;13.97;;
1719;SDS011;857;52.872;9.692;2022-11-20T01:39:10;22.87;;;13.73;;
1719;SDS011;857;52.872;9.692;2022-11-20T01:41:40;22.77;;;13.80;;
1719;SDS011;857;52.872;9.692;2022-11-20T01:47:08;25.57;;;14.13;;
1719;SDS011;857;52.872;9.692;2022-11-20T01:49:37;20.43;;;13.90;;
1719;SDS011;857;52.872;9.692;2022-11-20T01:52:07;22.50;;;14.60;;
1719;SDS011;857;52.872;9.692;2022-11-20T01:54:40;26.47;;;14.70;;
1719;SDS011;857;52.872;9.692;2022-11-20T01:57:10;21.50;;;14.00;;
1719;SDS011;857;52.872;9.692;2022-11-20T01:59:41;21.30;;;13.30;;
1719;SDS011;857;52.872;9.692;2022-11-20T02:02:10;24.47;;;15.87;;
1719;SDS011;857;52.872;9.692;2022-11-20T02:04:38;25.50;;;14.67;;
1719;SDS011;857;52.872;9.692;2022-11-20T02:07:06;27.17;;;15.30;;
1719;SDS011;857;52.872;9.692;2022-11-20T02:09:34;25.07;;;15.17;;
1719;SDS011;857;52.872;9.692;2022-11-20T02:12:02;22.37;;;14.33;;
1719;SDS011;857;52.872;9.692;2022-11-20T02:14:31;26.07;;;15.23;;
1719;SDS011;857;52.872;9.692;2022-11-20T02:16:58;23.90;;;15.00;;
1719;SDS011;857;52.872;9.692;2022-11-20T02:19:26;25.87;;;15.13;;
1719;SDS011;857;52.872;9.692;2022-11-20T02:21:56;23.50;;;13.80;;
1719;SDS011;857;52.872;9.692;2022-11-20T02:24:28;24.40;;;15.23;;
1719;SDS011;857;52.872;9.692;2022-11-20T02:26:57;29.30;;;15.73;;
1719;SDS011;857;52.872;9.692;2022-11-20T02:29:26;25.10;;;14.70;;
1719;SDS011;857;52.872;9.692;2022-11-20T02:31:55;23.83;;;15.10;;
1719;SDS011;857;52.872;9.692;2022-11-20T02:34:24;23.77;;;14.80;;
1719;SDS011;857;52.872;9.692;2022-11-20T02:36:51;24.97;;;15.00;;
1719;SDS011;857;52.872;9.692;2022-11-20T02:39:19;28.07;;;16.23;;
1719;SDS011;857;52.872;9.692;2022-11-20T02:41:49;24.10;;;14.57;;
1719;SDS011;857;52.872;9.692;2022-11-20T02:44:17;23.80;;;15.50;;
1719;SDS011;857;52.872;9.692;2022-11-20T02:46:45;26.73;;;14.83;;
1719;SDS011;857;52.872;9.692;2022-11-20T02:49:13;24.60;;;15.00;;
1719;SDS011;857;52.872;9.692;2022-11-20T02:51:42;24.60;;;14.63;;
1719;SDS011;857;52.872;9.692;2022-11-20T02:54:09;25.87;;;16.20;;
1719;SDS011;857;52.872;9.692;2022-11-20T02:56:37;24.43;;;13.90;;
1719;SDS011;857;52.872;9.692;2022-11-20T02:59:06;25.70;;;15.00;;
1719;SDS011;857;52.872;9.692;2022-11-20T03:01:34;24.43;;;14.20;;
1719;SDS011;857;52.872;9.692;2022-11-20T03:04:02;22.00;;;14.33;;
1719;SDS011;857;52.872;9.692;2022-11-20T03:06:30;23.10;;;16.30;;
1719;SDS011;857;52.872;9.692;2022-11-20T03:08:57;29.67;;;16.47;;
1719;SDS011;857;52.872;9.692;2022-11-20T03:11:25;26.07;;;14.60;;
1719;SDS011;857;52.872;9.692;2022-11-20T03:13:53;26.93;;;15.43;;
1719;SDS011;857;52.872;9.692;2022-11-20T03:16:23;26.77;;;15.47;;
1719;SDS011;857;52.872;9.692;2022-11-20T03:18:52;23.47;;;15.70;;
1719;SDS011;857;52.872;9.692;2022-11-20T03:21:20;28.93;;;15.70;;
1719;SDS011;857;52.872;9.692;2022-11-20T03:23:47;25.97;;;15.90;;
1719;SDS011;857;52.872;9.692;2022-11-20T03:26:16;25.00;;;15.53;;
1719;SDS011;857;52.872;9.692;2022-11-20T03:28:46;25.90;;;16.00;;
1719;SDS011;857;52.872;9.692;2022-11-20T03:31:15;30.10;;;16.97;;
1719;SDS011;857;52.872;9.692;2022-11-20T03:33:44;26.27;;;16.93;;
1719;SDS011;857;52.872;9.692;2022-11-20T03:36:12;26.30;;;15.63;;
1719;SDS011;857;52.872;9.692;2022-11-20T03:38:40;28.00;;;16.47;;
1719;SDS011;857;52.872;9.692;2022-11-20T03:41:09;27.77;;;17.63;;
1719;SDS011;857;52.872;9.692;2022-11-20T03:43:37;26.17;;;16.03;;
1719;SDS011;857;52.872;9.692;2022-11-20T03:46:05;27.20;;;16.90;;
1719;SDS011;857;52.872;9.692;2022-11-20T03:48:33;24.93;;;16.50;;
1719;SDS011;857;52.872;9.692;2022-11-20T03:51:09;25.67;;;16.30;;
1719;SDS011;857;52.872;9.692;2022-11-20T03:53:37;28.03;;;17.10;;
1719;SDS011;857;52.872;9.692;2022-11-20T03:56:06;31.20;;;18.90;;
1719;SDS011;857;52.872;9.692;2022-11-20T03:58:33;26.93;;;16.43;;
1719;SDS011;857;52.872;9.692;2022-11-20T04:01:05;30.13;;;18.50;;
1719;SDS011;857;52.872;9.692;2022-11-20T04:03:33;24.77;;;16.80;;
1719;SDS011;857;52.872;9.692;2022-11-20T04:06:02;27.60;;;18.40;;
1719;SDS011;857;52.872;9.692;2022-11-20T04:08:31;26.90;;;16.80;;
1719;SDS011;857;52.872;9.692;2022-11-20T04:11:08;27.27;;;16.53;;
1719;SDS011;857;52.872;9.692;2022-11-20T04:13:36;28.17;;;17.00;;
1719;SDS011;857;52.872;9.692;2022-11-20T04:16:04;25.73;;;16.10;;
1719;SDS011;857;52.872;9.692;2022-11-20T04:18:32;25.03;;;15.50;;
1719;SDS011;857;52.872;9.692;2022-11-20T04:21:00;25.07;;;16.53;;
1719;SDS011;857;52.872;9.692;2022-11-20T04:23:28;25.63;;;16.30;;
1719;SDS011;857;52.872;9.692;2022-11-20T04:26:01;24.77;;;15.87;;
1719;SDS011;857;52.872;9.692;2022-11-20T04:28:29;25.27;;;16.20;;
1719;SDS011;857;52.872;9.692;2022-11-20T04:31:01;25.90;;;15.93;;
1719;SDS011;857;52.872;9.692;2022-11-20T04:33:29;27.70;;;16.63;;
1719;SDS011;857;52.872;9.692;2022-11-20T04:35:59;24.03;;;16.07;;
1719;SDS011;857;52.872;9.692;2022-11-20T04:38:28;31.13;;;17.50;;
1719;SDS011;857;52.872;9.692;2022-11-20T04:40:56;28.23;;;16.97;;
1719;SDS011;857;52.872;9.692;2022-11-20T04:43:26;29.77;;;18.37;;
1719;SDS011;857;52.872;9.692;2022-11-20T04:45:54;27.87;;;17.60;;
1719;SDS011;857;52.872;9.692;2022-11-20T04:48:22;27.70;;;17.00;;
1719;SDS011;857;52.872;9.692;2022-11-20T04:50:50;27.60;;;17.73;;
1719;SDS011;857;52.872;9.692;2022-11-20T04:53:17;26.83;;;16.57;;
1719;SDS011;857;52.872;9.692;2022-11-20T04:55:45;28.20;;;17.53;;
1719;SDS011;857;52.872;9.692;2022-11-20T04:58:13;31.23;;;16.80;;
1719;SDS011;857;52.872;9.692;2022-11-20T05:00:42;27.63;;;17.50;;
1719;SDS011;857;52.872;9.692;2022-11-20T05:03:10;26.80;;;17.20;;
1719;SDS011;857;52.872;9.692;2022-11-20T05:05:38;27.10;;;17.40;;
1719;SDS011;857;52.872;9.692;2022-11-20T05:08:05;28.60;;;18.10;;
1719;SDS011;857;52.872;9.692;2022-11-20T05:10:33;28.93;;;17.43;;
1719;SDS011;857;52.872;9.692;2022-11-20T05:13:00;31.53;;;17.20;;
1719;SDS011;857;52.872;9.692;2022-11-20T05:15:28;31.00;;;18.57;;
1719;SDS011;857;52.872;9.692;2022-11-20T05:17:57;30.00;;;18.10;;
1719;SDS011;857;52.872;9.692;2022-11-20T05:20:25;25.83;;;16.60;;
1719;SDS011;857;52.872;9.692;2022-11-20T05:22:55;27.63;;;17.70;;
1719;SDS011;857;52.872;9.692;2022-11-20T05:25:23;29.00;;;17.37;;
1719;SDS011;857;52.872;9.692;2022-11-20T05:27:51;33.13;;;17.10;;
1719;SDS011;857;52.872;9.692;2022-11-20T05:30:18;29.97;;;16.10;;
1719;SDS011;857;52.872;9.692;2022-11-20T05:32:46;30.47;;;18.40;;
1719;SDS011;857;52.872;9.692;2022-11-20T05:35:15;32.30;;;17.00;;
1719;SDS011;857;52.872;9.692;2022-11-20T05:37:43;28.27;;;17.70;;
1719;SDS011;857;52.872;9.692;2022-11-20T05:40:11;31.80;;;19.50;;
1719;SDS011;857;52.872;9.692;2022-11-20T05:42:39;36.43;;;19.30;;
1719;SDS011;857;52.872;9.692;2022-11-20T05:45:09;31.50;;;19.23;;
1719;SDS011;857;52.872;9.692;2022-11-20T05:47:37;29.53;;;18.13;;
1719;SDS011;857;52.872;9.692;2022-11-20T05:50:05;32.67;;;18.63;;
1719;SDS011;857;52.872;9.692;2022-11-20T05:52:34;28.87;;;17.80;;
1719;SDS011;857;52.872;9.692;2022-11-20T05:55:01;29.67;;;17.93;;
1719;SDS011;857;52.872;9.692;2022-11-20T05:57:30;29.37;;;19.10;;
1719;SDS011;857;52.872;9.692;2022-11-20T05:59:58;30.77;;;18.27;;
1719;SDS011;857;52.872;9.692;2022-11-20T06:02:25;31.90;;;19.30;;
1719;SDS011;857;52.872;9.692;2022-11-20T06:04:53;27.80;;;18.50;;
1719;SDS011;857;52.872;9.692;2022-11-20T06:07:21;31.73;;;17.80;;
1719;SDS011;857;52.872;9.692;2022-11-20T06:09:50;29.50;;;17.27;;
1719;SDS011;857;52.872;9.692;2022-11-20T06:12:17;29.40;;;19.27;;
1719;SDS011;857;52.872;9.692;2022-11-20T06:14:45;28.53;;;18.03;;
1719;SDS011;857;52.872;9.692;2022-11-20T06:17:13;28.90;;;17.73;;
1719;SDS011;857;52.872;9.692;2022-11-20T06:19:40;33.00;;;18.73;;
1719;SDS011;857;52.872;9.692;2022-11-20T06:22:08;29.80;;;17.77;;
1719;SDS011;857;52.872;9.692;2022-11-20T06:24:36;27.60;;;17.00;;
1719;SDS011;857;52.872;9.692;2022-11-20T06:27:05;32.47;;;18.63;;
1719;SDS011;857;52.872;9.692;2022-11-20T06:29:32;29.00;;;17.73;;
1719;SDS011;857;52.872;9.692;2022-11-20T06:32:00;26.87;;;17.40;;
1719;SDS011;857;52.872;9.692;2022-11-20T06:34:28;41.23;;;19.80;;
1719;SDS011;857;52.872;9.692;2022-11-20T06:36:55;27.50;;;18.03;;
1719;SDS011;857;52.872;9.692;2022-11-20T06:39:23;27.53;;;17.57;;
1719;SDS011;857;52.872;9.692;2022-11-20T06:41:51;32.00;;;18.30;;
1719;SDS011;857;52.872;9.692;2022-11-20T06:44:20;29.63;;;18.60;;
1719;SDS011;857;52.872;9.692;2022-11-20T06:46:47;33.63;;;19.10;;
1719;SDS011;857;52.872;9.692;2022-11-20T06:49:15;29.97;;;19.20;;
1719;SDS011;857;52.872;9.692;2022-11-20T06:51:43;33.30;;;18.97;;
1719;SDS011;857;52.872;9.692;2022-11-20T06:54:10;27.30;;;17.90;;
1719;SDS011;857;52.872;9.692;2022-11-20T06:56:38;26.87;;;17.47;;
1719;SDS011;857;52.872;9.692;2022-11-20T06:59:06;29.97;;;17.90;;
1719;SDS011;857;52.872;9.692;2022-11-20T07:01:35;28.10;;;18.57;;
1719;SDS011;857;52.872;9.692;2022-11-20T07:04:03;29.80;;;18.27;;
1719;SDS011;857;52.872;9.692;2022-11-20T07:06:31;33.07;;;18.53;;
1719;SDS011;857;52.872;9.692;2022-11-20T07:08:58;28.90;;;17.57;;
1719;SDS011;857;52.872;9.692;2022-11-20T07:11:27;29.03;;;17.80;;
1719;SDS011;857;52.872;9.692;2022-11-20T07:13:54;29.07;;;17.00;;
1719;SDS011;857;52.872;9.692;2022-11-20T07:16:23;29.53;;;17.67;;
1719;SDS011;857;52.872;9.692;2022-11-20T07:18:52;25.07;;;16.13;;
1719;SDS011;857;52.872;9.692;2022-11-20T07:21:20;33.23;;;18.20;;
1719;SDS011;857;52.872;9.692;2022-11-20T07:23:48;30.00;;;17.83;;
1719;SDS011;857;52.872;9.692;2022-11-20T07:26:15;28.57;;;16.87;;
1719;SDS011;857;52.872;9.692;2022-11-20T07:28:44;24.80;;;16.63;;
1719;SDS011;857;52.872;9.692;2022-11-20T07:31:11;23.37;;;16.80;;
1719;SDS011;857;52.872;9.692;2022-11-20T07:33:39;26.67;;;16.03;;
1719;SDS011;857;52.872;9.692;2022-11-20T07:36:08;25.03;;;15.70;;
1719;SDS011;857;52.872;9.692;2022-11-20T07:38:36;30.10;;;17.20;;
1719;SDS011;857;52.872;9.692;2022-11-20T07:41:04;24.37;;;15.70;;
1719;SDS011;857;52.872;9.692;2022-11-20T07:43:32;24.10;;;15.83;;
1719;SDS011;857;52.872;9.692;2022-11-20T07:45:59;24.70;;;14.63;;
1719;SDS011;857;52.872;9.692;2022-11-20T07:48:27;26.20;;;16.40;;
1719;SDS011;857;52.872;9.692;2022-11-20T07:50:55;26.30;;;16.00;;
1719;SDS011;857;52.872;9.692;2022-11-20T07:53:24;26.93;;;16.10;;
1719;SDS011;857;52.872;9.692;2022-11-20T07:55:52;27.70;;;14.57;;
1719;SDS011;857;52.872;9.692;2022-11-20T07:58:20;24.23;;;15.40;;
1719;SDS011;857;52.872;9.692;2022-11-20T08:00:48;24.60;;;16.17;;
1719;SDS011;857;52.872;9.692;2022-11-20T08:03:15;22.10;;;14.60;;
1719;SDS011;857;52.872;9.692;2022-11-20T08:05:43;23.00;;;14.60;;
1719;SDS011;857;52.872;9.692;2022-11-20T08:08:11;22.20;;;13.30;;
1719;SDS011;857;52.872;9.692;2022-11-20T08:10:40;25.33;;;16.10;;
1719;SDS011;857;52.872;9.692;2022-11-20T08:13:08;21.10;;;14.30;;
1719;SDS011;857;52.872;9.692;2022-11-20T08:15:53;20.80;;;13.40;;
1719;SDS011;857;52.872;9.692;2022-11-20T08:20:49;24.63;;;14.77;;
1719;SDS011;857;52.872;9.692;2022-11-20T08:23:16;21.80;;;14.23;;
1719;SDS011;857;52.872;9.692;2022-11-20T08:25:48;23.63;;;15.90;;
1719;SDS011;857;52.872;9.692;2022-11-20T08:28:16;23.60;;;15.00;;
1719;SDS011;857;52.872;9.692;2022-11-20T08:30:44;21.90;;;15.00;;
1719;SDS011;857;52.872;9.692;2022-11-20T08:33:11;22.60;;;14.43;;
1719;SDS011;857;52.872;9.692;2022-11-20T08:35:39;27.43;;;16.77;;
1719;SDS011;857;52.872;9.692;2022-11-20T08:38:08;22.87;;;14.20;;
1719;SDS011;857;52.872;9.692;2022-11-20T08:40:36;22.53;;;14.07;;
1719;SDS011;857;52.872;9.692;2022-11-20T08:43:05;24.17;;;14.87;;
1719;SDS011;857;52.872;9.692;2022-11-20T08:45:32;22.17;;;13.57;;
1719;SDS011;857;52.872;9.692;2022-11-20T08:48:00;18.43;;;13.73;;
1719;SDS011;857;52.872;9.692;2022-11-20T08:50:28;20.80;;;13.70;;
1719;SDS011;857;52.872;9.692;2022-11-20T08:53:01;21.60;;;13.53;;
1719;SDS011;857;52.872;9.692;2022-11-20T08:55:29;20.40;;;13.97;;
1719;SDS011;857;52.872;9.692;2022-11-20T08:57:56;19.90;;;13.33;;
1719;SDS011;857;52.872;9.692;2022-11-20T09:00:26;24.37;;;14.87;;
1719;SDS011;857;52.872;9.692;2022-11-20T09:02:53;22.43;;;13.30;;
1719;SDS011;857;52.872;9.692;2022-11-20T09:05:21;26.60;;;13.00;;
1719;SDS011;857;52.872;9.692;2022-11-20T09:07:48;21.27;;;13.17;;
1719;SDS011;857;52.872;9.692;2022-11-20T09:10:16;20.30;;;13.83;;
1719;SDS011;857;52.872;9.692;2022-11-20T09:12:44;21.63;;;13.20;;
1719;SDS011;857;52.872;9.692;2022-11-20T09:15:16;21.50;;;14.20;;
1719;SDS011;857;52.872;9.692;2022-11-20T09:17:51;26.73;;;14.70;;
1719;SDS011;857;52.872;9.692;2022-11-20T09:20:19;20.73;;;13.20;;
1719;SDS011;857;52.872;9.692;2022-11-20T09:22:46;24.30;;;13.70;;
1719;SDS011;857;52.872;9.692;2022-11-20T09:25:14;15.80;;;9.80;;
1719;SDS011;857;52.872;9.692;2022-11-20T09:27:42;23.03;;;13.80;;
1719;SDS011;857;52.872;9.692;2022-11-20T09:30:11;21.20;;;13.40;;
1719;SDS011;857;52.872;9.692;2022-11-20T09:32:39;22.27;;;14.20;;
1719;SDS011;857;52.872;9.692;2022-11-20T09:35:08;18.73;;;12.90;;
1719;SDS011;857;52.872;9.692;2022-11-20T09:37:37;21.90;;;13.30;;
1719;SDS011;857;52.872;9.692;2022-11-20T09:40:05;22.57;;;13.57;;
1719;SDS011;857;52.872;9.692;2022-11-20T09:42:35;18.90;;;12.60;;
1719;SDS011;857;52.872;9.692;2022-11-20T09:45:16;22.80;;;13.40;;
1719;SDS011;857;52.872;9.692;2022-11-20T09:47:50;20.20;;;12.77;;
1719;SDS011;857;52.872;9.692;2022-11-20T09:50:27;15.23;;;10.10;;
1719;SDS011;857;52.872;9.692;2022-11-20T09:53:05;17.43;;;11.30;;
1719;SDS011;857;52.872;9.692;2022-11-20T09:55:36;18.37;;;11.90;;
1719;SDS011;857;52.872;9.692;2022-11-20T09:58:05;18.57;;;11.47;;
1719;SDS011;857;52.872;9.692;2022-11-20T10:00:34;19.17;;;12.30;;
1719;SDS011;857;52.872;9.692;2022-11-20T10:03:03;17.43;;;11.57;;
1719;SDS011;857;52.872;9.692;2022-11-20T10:05:35;19.63;;;12.60;;
1719;SDS011;857;52.872;9.692;2022-11-20T10:08:08;12.70;;;8.23;;
1719;SDS011;857;52.872;9.692;2022-11-20T10:10:40;15.97;;;10.63;;
1719;SDS011;857;52.872;9.692;2022-11-20T10:13:13;15.90;;;11.57;;
1719;SDS011;857;52.872;9.692;2022-11-20T10:15:45;18.57;;;11.57;;
1719;SDS011;857;52.872;9.692;2022-11-20T10:18:19;21.20;;;11.03;;
1719;SDS011;857;52.872;9.692;2022-11-20T10:20:52;17.70;;;11.63;;
1719;SDS011;857;52.872;9.692;2022-11-20T10:23:32;15.83;;;9.77;;
1719;SDS011;857;52.872;9.692;2022-11-20T10:26:17;17.87;;;11.97;;
1719;SDS011;857;52.872;9.692;2022-11-20T10:28:53;19.87;;;12.47;;
1719;SDS011;857;52.872;9.692;2022-11-20T10:31:26;19.60;;;13.00;;
1719;SDS011;857;52.872;9.692;2022-11-20T10:33:55;15.50;;;10.63;;
1719;SDS011;857;52.872;9.692;2022-11-20T10:36:26;16.00;;;10.90;;
1719;SDS011;857;52.872;9.692;2022-11-20T10:38:56;18.37;;;12.03;;
1719;SDS011;857;52.872;9.692;2022-11-20T10:41:27;14.27;;;10.33;;
1719;SDS011;857;52.872;9.692;2022-11-20T10:44:00;14.10;;;9.93;;
1719;SDS011;857;52.872;9.692;2022-11-20T10:46:33;14.40;;;9.97;;
1719;SDS011;857;52.872;9.692;2022-11-20T10:49:04;19.30;;;10.80;;
1719;SDS011;857;52.872;9.692;2022-11-20T10:51:35;14.47;;;9.57;;
1719;SDS011;857;52.872;9.692;2022-11-20T10:54:08;16.17;;;10.70;;
1719;SDS011;857;52.872;9.692;2022-11-20T10:56:38;17.13;;;10.97;;
1719;SDS011;857;52.872;9.692;2022-11-20T10:59:25;17.27;;;10.93;;
1719;SDS011;857;52.872;9.692;2022-11-20T11:01:54;15.60;;;10.10;;
1719;SDS011;857;52.872;9.692;2022-11-20T11:04:26;15.30;;;8.97;;
1719;SDS011;857;52.872;9.692;2022-11-20T11:07:01;16.50;;;11.00;;
1719;SDS011;857;52.872;9.692;2022-11-20T11:09:33;13.67;;;9.70;;
1719;SDS011;857;52.872;9.692;2022-11-20T11:12:01;14.27;;;8.80;;
1719;SDS011;857;52.872;9.692;2022-11-20T11:14:41;19.53;;;11.80;;
1719;SDS011;857;52.872;9.692;2022-11-20T11:17:17;17.67;;;11.73;;
1719;SDS011;857;52.872;9.692;2022-11-20T11:19:45;19.10;;;11.37;;
1719;SDS011;857;52.872;9.692;2022-11-20T11:22:25;17.03;;;10.20;;
1719;SDS011;857;52.872;9.692;2022-11-20T11:24:52;19.07;;;11.50;;
1719;SDS011;857;52.872;9.692;2022-11-20T11:27:20;16.73;;;11.07;;
1719;SDS011;857;52.872;9.692;2022-11-20T11:29:48;15.93;;;11.37;;
1719;SDS011;857;52.872;9.692;2022-11-20T11:32:18;16.47;;;10.30;;
1719;SDS011;857;52.872;9.692;2022-11-20T11:34:58;17.77;;;10.90;;
1719;SDS011;857;52.872;9.692;2022-11-20T11:37:28;20.43;;;11.90;;
1719;SDS011;857;52.872;9.692;2022-11-20T11:39:56;16.27;;;10.10;;
1719;SDS011;857;52.872;9.692;2022-11-20T11:42:23;15.40;;;9.30;;
1719;SDS011;857;52.872;9.692;2022-11-20T11:44:51;16.47;;;10.10;;
1719;SDS011;857;52.872;9.692;2022-11-20T11:47:30;15.30;;;10.23;;
1719;SDS011;857;52.872;9.692;2022-11-20T11:50:02;14.93;;;9.63;;
1719;SDS011;857;52.872;9.692;2022-11-20T11:52:31;18.03;;;9.90;;
1719;SDS011;857;52.872;9.692;2022-11-20T11:55:02;17.90;;;10.07;;
1719;SDS011;857;52.872;9.692;2022-11-20T11:57:33;15.33;;;9.63;;
1719;SDS011;857;52.872;9.692;2022-11-20T12:00:09;13.53;;;9.10;;
1719;SDS011;857;52.872;9.692;2022-11-20T12:02:38;20.77;;;10.73;;
1719;SDS011;857;52.872;9.692;2022-11-20T12:05:14;17.87;;;11.27;;
1719;SDS011;857;52.872;9.692;2022-11-20T12:07:46;15.20;;;10.80;;
1719;SDS011;857;52.872;9.692;2022-11-20T12:10:19;14.50;;;9.90;;
1719;SDS011;857;52.872;9.692;2022-11-20T12:12:48;16.27;;;9.47;;
1719;SDS011;857;52.872;9.692;2022-11-20T12:15:22;15.90;;;10.13;;
1719;SDS011;857;52.872;9.692;2022-11-20T12:17:52;17.60;;;9.70;;
1719;SDS011;857;52.872;9.692;2022-11-20T12:20:20;14.50;;;9.93;;
1719;SDS011;857;52.872;9.692;2022-11-20T12:22:52;18.60;;;10.77;;
1719;SDS011;857;52.872;9.692;2022-11-20T12:25:22;15.50;;;10.50;;
1719;SDS011;857;52.872;9.692;2022-11-20T12:30:41;15.50;;;10.27;;
1719;SDS011;857;52.872;9.692;2022-11-20T12:33:15;15.10;;;9.67;;
1719;SDS011;857;52.872;9.692;2022-11-20T12:35:48;16.57;;;9.73;;
1719;SDS011;857;52.872;9.692;2022-11-20T12:38:26;15.90;;;9.60;;
1719;SDS011;857;52.872;9.692;2022-11-20T12:40:59;15.30;;;10.33;;
1719;SDS011;857;52.872;9.692;2022-11-20T12:43:29;15.93;;;9.90;;
1719;SDS011;857;52.872;9.692;2022-11-20T12:46:18;14.30;;;9.83;;
1719;SDS011;857;52.872;9.692;2022-11-20T12:48:49;14.17;;;10.33;;
1719;SDS011;857;52.872;9.692;2022-11-20T12:51:23;14.00;;;9.40;;
1719;SDS011;857;52.872;9.692;2022-11-20T12:53:58;14.97;;;10.27;;
1719;SDS011;857;52.872;9.692;2022-11-20T12:56:31;13.73;;;8.60;;
1719;SDS011;857;52.872;9.692;2022-11-20T12:59:07;16.30;;;9.70;;
1719;SDS011;857;52.872;9.692;2022-11-20T13:01:39;14.23;;;9.43;;
1719;SDS011;857;52.872;9.692;2022-11-20T13:04:16;14.23;;;10.00;;
1719;SDS011;857;52.872;9.692;2022-11-20T13:06:46;14.83;;;9.93;;
1719;SDS011;857;52.872;9.692;2022-11-20T13:09:16;15.30;;;9.60;;
1719;SDS011;857;52.872;9.692;2022-11-20T13:11:47;14.10;;;9.13;;
1719;SDS011;857;52.872;9.692;2022-11-20T13:14:24;14.83;;;9.20;;
1719;SDS011;857;52.872;9.692;2022-11-20T13:16:54;11.87;;;7.67;;
1719;SDS011;857;52.872;9.692;2022-11-20T13:19:25;15.87;;;9.93;;
1719;SDS011;857;52.872;9.692;2022-11-20T13:21:54;13.33;;;9.20;;
1719;SDS011;857;52.872;9.692;2022-11-20T13:24:24;12.77;;;8.97;;
1719;SDS011;857;52.872;9.692;2022-11-20T13:27:03;17.20;;;10.13;;
1719;SDS011;857;52.872;9.692;2022-11-20T13:29:31;14.77;;;10.00;;
1719;SDS011;857;52.872;9.692;2022-11-20T13:32:03;16.07;;;9.93;;
1719;SDS011;857;52.872;9.692;2022-11-20T13:34:32;15.10;;;9.67;;
1719;SDS011;857;52.872;9.692;2022-11-20T13:37:00;14.00;;;9.73;;
1719;SDS011;857;52.872;9.692;2022-11-20T13:39:31;12.30;;;9.50;;
1719;SDS011;857;52.872;9.692;2022-11-20T13:41:59;13.60;;;9.27;;
1719;SDS011;857;52.872;9.692;2022-11-20T13:44:29;14.83;;;9.30;;
1719;SDS011;857;52.872;9.692;2022-11-20T13:46:57;14.40;;;9.97;;
1719;SDS011;857;52.872;9.692;2022-11-20T13:49:26;14.33;;;10.23;;
1719;SDS011;857;52.872;9.692;2022-11-20T13:51:57;17.70;;;10.77;;
1719;SDS011;857;52.872;9.692;2022-11-20T13:54:46;14.63;;;9.87;;
1719;SDS011;857;52.872;9.692;2022-11-20T13:57:27;13.70;;;9.80;;
1719;SDS011;857;52.872;9.692;2022-11-20T13:59:59;14.93;;;10.50;;
1719;SDS011;857;52.872;9.692;2022-11-20T14:02:36;18.47;;;10.37;;
1719;SDS011;857;52.872;9.692;2022-11-20T14:05:04;16.53;;;10.93;;
1719;SDS011;857;52.872;9.692;2022-11-20T14:07:34;14.77;;;10.00;;
1719;SDS011;857;52.872;9.692;2022-11-20T14:10:04;14.57;;;9.80;;
1719;SDS011;857;52.872;9.692;2022-11-20T14:12:33;16.97;;;11.50;;
1719;SDS011;857;52.872;9.692;2022-11-20T14:15:02;17.17;;;11.37;;
1719;SDS011;857;52.872;9.692;2022-11-20T14:17:31;15.27;;;11.57;;
1719;SDS011;857;52.872;9.692;2022-11-20T14:19:59;17.43;;;11.40;;
1719;SDS011;857;52.872;9.692;2022-11-20T14:22:28;18.40;;;12.10;;
1719;SDS011;857;52.872;9.692;2022-11-20T14:25:04;19.03;;;11.87;;
1719;SDS011;857;52.872;9.692;2022-11-20T14:27:33;19.97;;;13.67;;
1719;SDS011;857;52.872;9.692;2022-11-20T14:30:01;16.83;;;12.00;;
1719;SDS011;857;52.872;9.692;2022-11-20T14:32:30;19.90;;;12.57;;
1719;SDS011;857;52.872;9.692;2022-11-20T14:34:59;16.70;;;11.20;;
1719;SDS011;857;52.872;9.692;2022-11-20T14:37:30;17.40;;;11.27;;
1719;SDS011;857;52.872;9.692;2022-11-20T14:40:00;17.30;;;10.90;;
1719;SDS011;857;52.872;9.692;2022-11-20T14:42:29;19.80;;;11.80;;
1719;SDS011;857;52.872;9.692;2022-11-20T14:44:57;18.90;;;12.00;;
1719;SDS011;857;52.872;9.692;2022-11-20T14:47:26;18.53;;;12.70;;
1719;SDS011;857;52.872;9.692;2022-11-20T14:49:54;18.40;;;11.73;;
1719;SDS011;857;52.872;9.692;2022-11-20T14:52:23;19.40;;;11.80;;
1719;SDS011;857;52.872;9.692;2022-11-20T14:54:51;19.60;;;11.97;;
1719;SDS011;857;52.872;9.692;2022-11-20T14:57:20;18.00;;;11.30;;
1719;SDS011;857;52.872;9.692;2022-11-20T14:59:50;18.13;;;11.67;;
1719;SDS011;857;52.872;9.692;2022-11-20T15:02:18;19.57;;;12.57;;
1719;SDS011;857;52.872;9.692;2022-11-20T15:04:46;15.97;;;11.17;;
1719;SDS011;857;52.872;9.692;2022-11-20T15:07:23;20.60;;;12.90;;
1719;SDS011;857;52.872;9.692;2022-11-20T15:10:04;18.43;;;12.07;;
1719;SDS011;857;52.872;9.692;2022-11-20T15:12:33;18.63;;;12.10;;
1719;SDS011;857;52.872;9.692;2022-11-20T15:15:03;22.70;;;12.80;;
1719;SDS011;857;52.872;9.692;2022-11-20T15:17:32;20.03;;;12.97;;
1719;SDS011;857;52.872;9.692;2022-11-20T15:19:59;17.27;;;11.57;;
1719;SDS011;857;52.872;9.692;2022-11-20T15:22:28;21.97;;;13.00;;
1719;SDS011;857;52.872;9.692;2022-11-20T15:24:56;21.33;;;12.50;;